Terminal Aerodrome Forecast
Issued by NWS

Home | Current Version | Previous Version | Text Only | Print | Product List | Glossary On
Versions: 1 2 3 4 5 6 7 8 9 10 11 12 13 14 15 16 17 18 19
625
FTUS43 KAPX 050244 AAB
TAFAPN
TAF AMD
KAPN 050244Z 0503/0524 34008KT P6SM SCT008 BKN070
     FM050900 35005KT P6SM BKN009 OVC050
     FM051400 36005KT P6SM BKN025
     FM051700 35009KT P6SM SCT035=

USA.gov is the U.S. government's official web portal to all federal, state and local government web resources and services.